createdAt,value
2023-03-15T00:01:55.298Z,79.80
2023-03-15T00:04:26.195Z,79.53
2023-03-15T00:06:53.796Z,79.39
2023-03-15T00:09:22.330Z,79.20
2023-03-15T00:11:50.004Z,79.22
2023-03-15T00:14:17.844Z,79.30
2023-03-15T00:16:45.462Z,79.30
2023-03-15T00:19:13.152Z,79.31
2023-03-15T00:21:43.255Z,79.32
2023-03-15T00:24:11.527Z,79.33
2023-03-15T00:26:39.129Z,79.38
2023-03-15T00:29:06.781Z,79.40
2023-03-15T00:31:36.265Z,79.26
2023-03-15T00:34:04.103Z,79.19
2023-03-15T00:36:31.615Z,79.20
2023-03-15T00:38:59.304Z,79.19
2023-03-15T00:41:27.351Z,79.12
2023-03-15T00:43:55.371Z,79.11
2023-03-15T00:46:22.990Z,79.08
2023-03-15T00:48:50.625Z,79.03
2023-03-15T00:51:18.868Z,78.98
2023-03-15T00:53:46.377Z,79.00
2023-03-15T00:56:14.411Z,78.99
2023-03-15T00:58:42.221Z,79.10
2023-03-15T01:01:09.860Z,79.33
2023-03-15T01:03:37.566Z,79.62
2023-03-15T01:06:05.180Z,79.64
2023-03-15T01:08:33.363Z,77.05
2023-03-15T01:11:01.030Z,78.37
2023-03-15T01:13:28.899Z,80.10
2023-03-15T01:15:56.603Z,81.46
2023-03-15T01:18:24.656Z,82.64
2023-03-15T01:20:52.867Z,83.49
2023-03-15T01:23:20.426Z,84.15
2023-03-15T01:25:48.177Z,84.54
2023-03-15T01:28:15.768Z,84.92
2023-03-15T01:30:43.513Z,85.12
2023-03-15T01:33:13.165Z,85.16
2023-03-15T01:35:41.752Z,84.93
2023-03-15T01:38:09.508Z,84.70
2023-03-15T01:40:38.083Z,84.81
2023-03-15T01:43:06.175Z,84.72
2023-03-15T01:45:33.935Z,84.93
2023-03-15T01:48:01.678Z,84.90
2023-03-15T01:50:30.408Z,84.82
2023-03-15T01:52:58.748Z,84.56
2023-03-15T01:55:26.546Z,83.68
2023-03-15T01:57:56.283Z,83.93
2023-03-15T02:00:23.874Z,84.14
2023-03-15T02:02:52.023Z,84.47
2023-03-15T02:05:20.631Z,84.70
2023-03-15T02:07:50.109Z,85.33
2023-03-15T02:10:17.917Z,84.97
2023-03-15T02:12:46.064Z,84.71
2023-03-15T02:15:13.700Z,84.69
2023-03-15T02:17:41.230Z,84.63
2023-03-15T02:20:08.810Z,84.39
2023-03-15T02:22:36.659Z,84.17
2023-03-15T02:25:04.549Z,84.03
2023-03-15T02:27:34.602Z,84.02
2023-03-15T02:30:03.515Z,84.06
2023-03-15T02:32:31.132Z,84.07
2023-03-15T02:34:58.724Z,84.38
2023-03-15T02:37:26.440Z,84.57
2023-03-15T02:39:54.037Z,84.58
2023-03-15T02:42:21.602Z,84.48
2023-03-15T02:44:49.154Z,84.66
2023-03-15T02:47:17.002Z,84.76
2023-03-15T02:49:44.566Z,84.79
2023-03-15T02:52:13.967Z,84.98
2023-03-15T02:54:44.258Z,85.28
2023-03-15T02:57:11.842Z,85.42
2023-03-15T02:59:40.045Z,85.62
2023-03-15T03:02:08.021Z,85.74
2023-03-15T03:04:35.785Z,85.61
2023-03-15T03:07:03.698Z,85.82
2023-03-15T03:09:31.290Z,85.86
2023-03-15T03:11:58.831Z,85.88
2023-03-15T03:14:26.351Z,85.84
2023-03-15T03:16:53.961Z,86.07
2023-03-15T03:19:25.995Z,86.08
2023-03-15T03:21:54.095Z,86.18
2023-03-15T03:24:21.777Z,86.28
2023-03-15T03:26:49.248Z,86.36
2023-03-15T03:29:17.270Z,86.48
2023-03-15T03:31:45.448Z,86.59
2023-03-15T03:34:15.847Z,86.60
2023-03-15T03:36:43.467Z,86.60
2023-03-15T03:39:11.081Z,86.68
2023-03-15T03:41:39.269Z,86.75
2023-03-15T03:44:06.949Z,86.80
2023-03-15T03:46:35.209Z,86.80
2023-03-15T03:49:03.014Z,86.81
2023-03-15T03:51:30.958Z,86.83
2023-03-15T03:53:58.911Z,86.78
2023-03-15T03:56:27.444Z,86.67
2023-03-15T03:58:55.045Z,86.50
2023-03-15T04:01:22.642Z,86.33
2023-03-15T04:03:51.212Z,86.12
2023-03-15T04:06:18.963Z,85.97
2023-03-15T04:08:46.703Z,86.00
2023-03-15T04:11:17.808Z,85.81
2023-03-15T04:13:45.600Z,85.85
2023-03-15T04:16:14.730Z,85.83
2023-03-15T04:18:42.314Z,85.94
2023-03-15T04:21:11.195Z,85.96
2023-03-15T04:23:39.484Z,85.83
2023-03-15T04:26:07.712Z,85.77
2023-03-15T04:28:38.397Z,85.74
2023-03-15T04:31:10.805Z,85.67
2023-03-15T04:33:38.393Z,85.80
2023-03-15T04:36:06.290Z,85.96
2023-03-15T04:38:35.619Z,86.00
2023-03-15T04:41:11.022Z,86.05
2023-03-15T04:43:38.657Z,86.03
2023-03-15T04:46:06.424Z,85.93
2023-03-15T04:48:33.931Z,86.23
2023-03-15T04:51:02.117Z,86.38
2023-03-15T04:53:30.690Z,86.24
2023-03-15T04:55:58.201Z,86.26
2023-03-15T04:58:26.085Z,86.48
2023-03-15T05:00:54.087Z,86.60
2023-03-15T05:03:21.801Z,86.56
2023-03-15T05:06:10.868Z,86.67
2023-03-15T05:08:39.972Z,86.66
2023-03-15T05:11:10.782Z,86.95
2023-03-15T05:13:39.455Z,86.87
2023-03-15T05:16:07.311Z,86.96
2023-03-15T05:18:37.665Z,86.56
2023-03-15T05:21:07.134Z,86.27
2023-03-15T05:23:35.814Z,86.61
2023-03-15T05:26:04.769Z,86.86
2023-03-15T05:28:32.622Z,86.94
2023-03-15T05:31:02.760Z,86.81
2023-03-15T05:33:31.453Z,86.74
2023-03-15T05:35:59.729Z,86.94
2023-03-15T05:38:27.522Z,87.02
2023-03-15T05:40:55.288Z,86.83
2023-03-15T05:43:22.832Z,86.71
2023-03-15T05:45:51.114Z,86.79
2023-03-15T05:48:18.648Z,87.08
2023-03-15T05:50:46.405Z,86.71
2023-03-15T05:53:16.678Z,86.79
2023-03-15T05:55:44.512Z,87.04
2023-03-15T05:58:12.104Z,87.13
2023-03-15T06:00:39.668Z,87.11
2023-03-15T06:03:07.559Z,87.09
2023-03-15T06:05:35.215Z,87.15
2023-03-15T06:08:02.879Z,87.17
2023-03-15T06:10:30.414Z,87.18
2023-03-15T06:12:57.954Z,87.32
2023-03-15T06:15:25.608Z,87.51
2023-03-15T06:17:53.127Z,87.75
2023-03-15T06:20:20.836Z,87.99
2023-03-15T06:22:51.509Z,87.94
2023-03-15T06:25:19.035Z,87.71
2023-03-15T06:27:46.594Z,87.01
2023-03-15T06:30:16.878Z,86.80
2023-03-15T06:32:45.051Z,86.48
2023-03-15T06:35:12.751Z,85.47
2023-03-15T06:37:41.955Z,84.67
2023-03-15T06:40:09.911Z,84.33
2023-03-15T06:42:37.532Z,83.79
2023-03-15T06:45:05.388Z,83.55
2023-03-15T06:47:33.134Z,83.45
2023-03-15T06:50:00.786Z,82.91
2023-03-15T06:52:28.322Z,82.74
2023-03-15T06:54:58.482Z,82.86
2023-03-15T06:57:26.256Z,83.09
2023-03-15T06:59:54.372Z,83.04
2023-03-15T07:02:22.548Z,82.56
2023-03-15T07:04:50.268Z,82.30
2023-03-15T07:07:18.051Z,82.63
2023-03-15T07:09:45.788Z,82.45
2023-03-15T07:12:13.375Z,82.34
2023-03-15T07:14:46.605Z,82.54
2023-03-15T07:17:15.456Z,82.47
2023-03-15T07:19:55.520Z,82.68
2023-03-15T07:22:24.048Z,82.56
2023-03-15T07:24:51.585Z,82.02
2023-03-15T07:27:19.688Z,81.69
2023-03-15T07:29:47.453Z,81.72
2023-03-15T07:32:15.222Z,81.74
2023-03-15T07:34:43.879Z,82.02
2023-03-15T07:37:11.628Z,81.82
2023-03-15T07:39:39.138Z,81.64
2023-03-15T07:42:07.368Z,82.00
2023-03-15T07:44:35.046Z,81.89
2023-03-15T07:47:02.847Z,81.45
2023-03-15T07:49:32.665Z,81.54
2023-03-15T07:52:00.334Z,81.77
2023-03-15T07:54:29.923Z,81.62
2023-03-15T07:56:57.417Z,81.68
2023-03-15T07:59:25.129Z,81.35
2023-03-15T08:01:52.861Z,81.22
2023-03-15T08:04:21.352Z,81.49
2023-03-15T08:06:48.983Z,81.28
2023-03-15T08:09:16.501Z,81.45
2023-03-15T08:11:45.341Z,81.36
2023-03-15T08:14:13.797Z,80.92
2023-03-15T08:16:41.480Z,80.27
2023-03-15T08:19:09.302Z,80.46
2023-03-15T08:21:37.153Z,80.51
2023-03-15T08:24:04.724Z,80.59
2023-03-15T08:26:32.321Z,79.91
2023-03-15T08:29:00.042Z,80.02
2023-03-15T08:31:27.649Z,79.39
2023-03-15T08:33:55.384Z,79.59
2023-03-15T08:36:23.080Z,79.03
2023-03-15T08:38:53.510Z,79.09
2023-03-15T08:41:21.135Z,78.98
2023-03-15T08:43:48.854Z,79.21
2023-03-15T08:46:17.727Z,78.99
2023-03-15T08:48:45.285Z,78.81
2023-03-15T08:51:13.537Z,78.12
2023-03-15T08:53:41.463Z,77.58
2023-03-15T08:56:09.658Z,77.55
2023-03-15T08:58:37.423Z,77.57
2023-03-15T09:01:05.406Z,76.20
2023-03-15T09:03:33.553Z,76.68
2023-03-15T09:06:01.192Z,76.02
2023-03-15T09:08:28.831Z,75.67
2023-03-15T09:10:56.569Z,75.47
2023-03-15T09:13:24.189Z,75.53
2023-03-15T09:15:51.746Z,74.68
2023-03-15T09:18:19.529Z,74.84
2023-03-15T09:20:47.160Z,74.82
2023-03-15T09:23:15.064Z,74.64
2023-03-15T09:25:42.958Z,73.93
2023-03-15T09:28:10.803Z,74.34
2023-03-15T09:30:38.941Z,74.72
2023-03-15T09:33:14.226Z,74.99
2023-03-15T09:35:42.345Z,74.65
2023-03-15T09:38:13.429Z,74.58
2023-03-15T09:40:41.538Z,74.74
2023-03-15T09:43:10.160Z,74.57
2023-03-15T09:45:37.812Z,74.61
2023-03-15T09:48:05.586Z,74.53
2023-03-15T09:50:33.304Z,74.62
2023-03-15T09:53:00.865Z,74.83
2023-03-15T09:55:28.527Z,74.78
2023-03-15T09:57:56.996Z,73.53
2023-03-15T10:00:24.597Z,73.56
2023-03-15T10:02:53.258Z,73.87
2023-03-15T10:05:21.283Z,73.89
2023-03-15T10:07:48.962Z,74.08
2023-03-15T10:10:16.704Z,74.10
2023-03-15T10:12:44.280Z,74.66
2023-03-15T10:15:11.891Z,74.25
2023-03-15T10:17:39.573Z,73.00
2023-03-15T10:20:10.842Z,73.13
2023-03-15T10:22:38.782Z,73.29
2023-03-15T10:25:06.497Z,72.52
2023-03-15T10:27:34.020Z,72.18
2023-03-15T10:30:01.669Z,72.12
2023-03-15T10:32:33.990Z,71.78
2023-03-15T10:35:01.597Z,71.06
2023-03-15T10:37:29.500Z,70.26
2023-03-15T10:39:57.845Z,68.57
2023-03-15T10:42:25.364Z,67.57
2023-03-15T10:44:52.894Z,68.27
2023-03-15T10:47:24.536Z,67.29
2023-03-15T10:49:52.617Z,67.94
2023-03-15T10:52:21.141Z,68.32
2023-03-15T10:54:55.383Z,67.31
2023-03-15T10:57:26.292Z,67.62
2023-03-15T10:59:53.871Z,67.21
2023-03-15T11:02:22.618Z,66.29
2023-03-15T11:04:51.104Z,65.96
2023-03-15T11:07:19.183Z,66.19
2023-03-15T11:09:46.823Z,66.29
2023-03-15T11:12:14.390Z,66.66
2023-03-15T11:14:41.979Z,66.29
2023-03-15T11:17:09.938Z,66.46
2023-03-15T11:19:37.570Z,67.40
2023-03-15T11:22:05.216Z,67.57
2023-03-15T11:24:33.000Z,67.60
2023-03-15T11:27:01.759Z,67.83
2023-03-15T11:29:31.809Z,67.67
2023-03-15T11:31:59.605Z,67.09
2023-03-15T11:34:27.134Z,66.89
2023-03-15T11:37:07.281Z,66.53
2023-03-15T11:39:35.943Z,66.14
2023-03-15T11:42:03.510Z,65.80
2023-03-15T11:44:31.001Z,65.01
2023-03-15T11:46:58.480Z,65.83
2023-03-15T11:49:28.728Z,65.65
2023-03-15T11:51:56.521Z,65.71
2023-03-15T11:54:24.358Z,65.58
2023-03-15T11:56:52.088Z,65.41
2023-03-15T11:59:20.184Z,66.30
2023-03-15T12:01:49.664Z,65.85
2023-03-15T12:04:17.776Z,64.86
2023-03-15T12:06:45.403Z,65.90
2023-03-15T12:09:12.909Z,65.44
2023-03-15T12:11:41.185Z,65.27
2023-03-15T12:14:09.360Z,64.05
2023-03-15T12:16:36.917Z,63.49
2023-03-15T12:19:04.761Z,64.24
2023-03-15T12:21:32.292Z,63.49
2023-03-15T12:24:00.022Z,63.44
2023-03-15T12:26:30.220Z,63.53
2023-03-15T12:28:57.875Z,63.41
2023-03-15T12:31:25.454Z,63.49
2023-03-15T12:33:53.187Z,63.48
2023-03-15T12:36:20.779Z,63.16
2023-03-15T12:38:48.288Z,64.21
2023-03-15T12:41:16.021Z,64.27
2023-03-15T12:43:43.624Z,63.91
2023-03-15T12:46:11.276Z,63.32
2023-03-15T12:48:38.825Z,63.89
2023-03-15T12:51:06.399Z,63.50
2023-03-15T12:53:38.441Z,63.50
2023-03-15T12:56:08.884Z,64.08
2023-03-15T12:58:36.667Z,64.00
2023-03-15T13:01:05.452Z,63.26
2023-03-15T13:03:34.841Z,62.93
2023-03-15T13:06:04.238Z,63.43
2023-03-15T13:08:32.130Z,62.67
2023-03-15T13:10:59.706Z,62.66
2023-03-15T13:13:27.269Z,62.78
2023-03-15T13:15:55.063Z,63.30
2023-03-15T13:18:22.984Z,63.21
2023-03-15T13:20:50.566Z,62.33
2023-03-15T13:23:18.136Z,63.33
2023-03-15T13:25:45.661Z,63.01
2023-03-15T13:28:13.782Z,62.63
2023-03-15T13:30:41.528Z,61.60
2023-03-15T13:33:09.217Z,62.53
2023-03-15T13:35:36.809Z,62.96
2023-03-15T13:38:04.476Z,63.56
2023-03-15T13:40:32.051Z,63.35
2023-03-15T13:42:59.693Z,62.79
2023-03-15T13:45:27.790Z,62.24
2023-03-15T13:47:55.488Z,62.57
2023-03-15T13:50:23.151Z,63.19
2023-03-15T13:52:50.824Z,63.00
2023-03-15T13:55:18.706Z,62.81
2023-03-15T13:57:46.282Z,62.77
2023-03-15T14:00:13.854Z,63.10
2023-03-15T14:02:41.661Z,63.67
2023-03-15T14:05:09.536Z,63.32
2023-03-15T14:07:37.349Z,63.20
2023-03-15T14:10:04.871Z,63.00
2023-03-15T14:12:32.924Z,63.05
2023-03-15T14:15:00.608Z,63.43
2023-03-15T14:17:28.202Z,64.00
2023-03-15T14:19:56.818Z,63.59
2023-03-15T14:22:24.518Z,63.44
2023-03-15T14:24:52.256Z,63.18
2023-03-15T14:27:19.945Z,62.79
2023-03-15T14:29:47.624Z,62.54
2023-03-15T14:32:15.754Z,63.27
2023-03-15T14:34:43.862Z,63.53
2023-03-15T14:37:11.460Z,63.74
2023-03-15T14:39:39.755Z,63.17
2023-03-15T14:42:10.166Z,63.33
2023-03-15T14:44:48.346Z,63.37
2023-03-15T14:47:16.996Z,63.73
2023-03-15T14:49:51.873Z,64.05
2023-03-15T14:52:20.140Z,63.60
2023-03-15T14:54:50.997Z,63.69
2023-03-15T14:57:25.451Z,63.59
2023-03-15T15:00:00.095Z,63.60
2023-03-15T15:02:28.292Z,63.54
2023-03-15T15:04:56.675Z,63.49
2023-03-15T15:07:26.519Z,63.62
2023-03-15T15:09:54.701Z,63.50
2023-03-15T15:12:22.416Z,64.02
2023-03-15T15:14:56.082Z,64.17
2023-03-15T15:17:23.753Z,64.24
2023-03-15T15:19:53.177Z,63.91
2023-03-15T15:22:22.181Z,64.30
2023-03-15T15:24:51.455Z,64.01
2023-03-15T15:27:19.775Z,64.10
2023-03-15T15:29:48.864Z,63.87
2023-03-15T15:32:16.499Z,63.65
2023-03-15T15:34:45.460Z,64.13
2023-03-15T15:37:13.550Z,64.56
2023-03-15T15:39:41.719Z,64.66
2023-03-15T15:42:09.823Z,64.63
2023-03-15T15:44:37.831Z,64.44
2023-03-15T15:47:06.463Z,64.67
2023-03-15T15:49:35.636Z,64.39
2023-03-15T15:52:04.397Z,64.16
2023-03-15T15:54:35.898Z,64.17
2023-03-15T15:57:03.797Z,63.93
2023-03-15T15:59:31.434Z,63.83
2023-03-15T16:02:06.747Z,63.87
2023-03-15T16:04:34.840Z,64.01
2023-03-15T16:07:04.411Z,63.83
2023-03-15T16:09:32.013Z,64.24
2023-03-15T16:11:59.837Z,64.32
2023-03-15T16:14:27.722Z,64.72
2023-03-15T16:16:55.394Z,65.01
2023-03-15T16:19:25.671Z,65.19
2023-03-15T16:21:54.570Z,65.32
2023-03-15T16:24:22.560Z,65.56
2023-03-15T16:26:50.348Z,65.51
2023-03-15T16:29:18.161Z,65.36
2023-03-15T16:31:45.814Z,65.28
2023-03-15T16:34:14.957Z,65.56
2023-03-15T16:36:45.761Z,65.76
2023-03-15T16:39:15.450Z,65.83
2023-03-15T16:41:46.076Z,65.85
2023-03-15T16:44:13.691Z,65.85
2023-03-15T16:46:42.262Z,65.91
2023-03-15T16:49:13.713Z,66.17
2023-03-15T16:51:45.020Z,66.07
2023-03-15T16:54:22.073Z,66.04
2023-03-15T16:56:54.784Z,66.46
2023-03-15T16:59:22.410Z,66.57
2023-03-15T17:01:50.817Z,66.83
2023-03-15T17:04:18.444Z,67.03
2023-03-15T17:06:46.122Z,67.20
2023-03-15T17:09:16.421Z,67.31
2023-03-15T17:11:46.712Z,67.17
2023-03-15T17:14:14.275Z,67.34
2023-03-15T17:16:43.951Z,67.64
2023-03-15T17:19:11.830Z,67.63
2023-03-15T17:21:39.592Z,67.83
2023-03-15T17:24:07.524Z,67.67
2023-03-15T17:26:43.583Z,67.77
2023-03-15T17:29:12.103Z,67.92
2023-03-15T17:31:40.187Z,68.11
2023-03-15T17:34:11.807Z,68.10
2023-03-15T17:36:39.982Z,68.18
2023-03-15T17:39:07.813Z,67.94
2023-03-15T17:41:37.188Z,68.03
2023-03-15T17:44:05.764Z,68.22
2023-03-15T17:46:33.563Z,68.27
2023-03-15T17:49:01.262Z,68.14
2023-03-15T17:51:30.412Z,68.28
2023-03-15T17:53:59.354Z,68.21
2023-03-15T17:56:28.259Z,68.25
2023-03-15T17:58:56.019Z,68.19
2023-03-15T18:01:25.877Z,68.25
2023-03-15T18:03:55.290Z,68.32
2023-03-15T18:06:25.919Z,68.43
2023-03-15T18:08:54.017Z,68.32
2023-03-15T18:11:22.431Z,68.33
2023-03-15T18:13:50.764Z,68.38
2023-03-15T18:16:19.701Z,68.41
2023-03-15T18:18:48.440Z,68.40
2023-03-15T18:21:16.278Z,68.58
2023-03-15T18:23:44.196Z,68.65
2023-03-15T18:26:14.138Z,68.67
2023-03-15T18:28:42.352Z,68.73
2023-03-15T18:31:13.190Z,68.82
2023-03-15T18:33:43.932Z,68.80
2023-03-15T18:36:14.795Z,68.90
2023-03-15T18:38:42.680Z,68.87
2023-03-15T18:41:11.389Z,68.73
2023-03-15T18:43:39.213Z,68.79
2023-03-15T18:46:07.532Z,68.83
2023-03-15T18:48:40.812Z,68.99
2023-03-15T18:51:12.690Z,68.91
2023-03-15T18:53:40.892Z,68.90
2023-03-15T18:56:10.043Z,68.96
2023-03-15T18:58:37.718Z,69.11
2023-03-15T19:01:05.415Z,69.03
2023-03-15T19:03:33.357Z,68.88
2023-03-15T19:06:01.434Z,68.81
2023-03-15T19:08:29.258Z,68.90
2023-03-15T19:10:59.280Z,68.94
2023-03-15T19:13:26.865Z,69.02
2023-03-15T19:15:56.317Z,69.12
2023-03-15T19:18:24.121Z,69.10
2023-03-15T19:20:52.044Z,69.20
2023-03-15T19:23:19.877Z,69.17
2023-03-15T19:25:47.629Z,69.26
2023-03-15T19:28:15.116Z,69.17
2023-03-15T19:30:42.900Z,69.28
2023-03-15T19:33:10.813Z,69.41
2023-03-15T19:35:38.502Z,69.45
2023-03-15T19:38:06.284Z,69.38
2023-03-15T19:40:34.128Z,69.20
2023-03-15T19:43:01.876Z,69.32
2023-03-15T19:45:31.477Z,69.27
2023-03-15T19:48:01.289Z,69.16
2023-03-15T19:50:31.391Z,69.23
2023-03-15T19:52:59.136Z,69.32
2023-03-15T19:55:31.595Z,69.41
2023-03-15T19:57:59.723Z,69.51
2023-03-15T20:00:27.369Z,69.53
2023-03-15T20:02:55.618Z,69.60
2023-03-15T20:05:25.835Z,69.67
2023-03-15T20:07:54.389Z,69.70
2023-03-15T20:10:22.275Z,69.79
2023-03-15T20:12:50.606Z,69.90
2023-03-15T20:15:18.334Z,69.90
2023-03-15T20:17:46.957Z,69.88
2023-03-15T20:20:14.723Z,69.89
2023-03-15T20:22:42.925Z,69.82
2023-03-15T20:25:10.635Z,69.86
2023-03-15T20:27:38.658Z,69.88
2023-03-15T20:30:06.327Z,69.95
2023-03-15T20:32:34.188Z,69.93
2023-03-15T20:35:02.440Z,69.98
2023-03-15T20:37:30.063Z,70.02
2023-03-15T20:39:57.684Z,69.90
2023-03-15T20:42:25.333Z,70.01
2023-03-15T20:44:55.593Z,72.72
2023-03-15T20:47:24.309Z,70.79
2023-03-15T20:49:54.180Z,71.35
2023-03-15T20:52:22.325Z,70.16
2023-03-15T20:54:49.928Z,69.15
2023-03-15T20:57:17.687Z,67.79
2023-03-15T20:59:47.238Z,67.26
2023-03-15T21:02:15.307Z,67.41
2023-03-15T21:04:44.652Z,67.36
2023-03-15T21:07:13.628Z,67.10
2023-03-15T21:09:41.408Z,67.31
2023-03-15T21:12:09.022Z,67.66
2023-03-15T21:14:36.727Z,67.61
2023-03-15T21:17:04.252Z,67.74
2023-03-15T21:19:31.784Z,67.83
2023-03-15T21:22:01.041Z,67.59
2023-03-15T21:24:28.799Z,68.02
2023-03-15T21:26:56.373Z,68.14
2023-03-15T21:29:24.042Z,68.35
2023-03-15T21:31:51.653Z,68.50
2023-03-15T21:34:19.524Z,68.51
2023-03-15T21:36:47.406Z,68.62
2023-03-15T21:39:15.104Z,68.62
2023-03-15T21:41:42.761Z,68.90
2023-03-15T21:44:10.349Z,68.94
2023-03-15T21:46:38.048Z,68.91
2023-03-15T21:49:06.001Z,68.77
2023-03-15T21:54:21.094Z,68.95
2023-03-15T21:56:49.059Z,69.01
2023-03-15T21:59:16.750Z,69.18
2023-03-15T22:01:44.391Z,69.48
2023-03-15T22:04:12.096Z,69.66
2023-03-15T22:06:39.776Z,69.57
2023-03-15T22:09:07.517Z,69.63
2023-03-15T22:11:35.049Z,69.55
2023-03-15T22:14:02.509Z,69.60
2023-03-15T22:16:30.166Z,69.80
2023-03-15T22:18:57.966Z,69.84
2023-03-15T22:21:25.633Z,69.98
2023-03-15T22:23:53.230Z,70.14
2023-03-15T22:26:22.566Z,70.19
2023-03-15T22:28:50.172Z,70.04
2023-03-15T22:31:17.753Z,69.87
2023-03-15T22:33:45.661Z,69.89
2023-03-15T22:36:17.366Z,69.70
2023-03-15T22:38:50.410Z,69.54
2023-03-15T22:41:18.180Z,69.41
2023-03-15T22:43:46.022Z,69.63
2023-03-15T22:46:13.656Z,69.77
2023-03-15T22:48:41.433Z,69.92
2023-03-15T22:51:16.098Z,70.16
2023-03-15T22:53:43.764Z,70.46
2023-03-15T22:56:11.537Z,69.97
2023-03-15T22:58:39.131Z,69.82
2023-03-15T23:01:06.962Z,69.74
2023-03-15T23:03:54.528Z,69.92
2023-03-15T23:06:22.226Z,70.14
2023-03-15T23:08:52.558Z,70.10
2023-03-15T23:11:20.355Z,69.85
2023-03-15T23:13:48.949Z,69.79
2023-03-15T23:16:16.926Z,70.33
2023-03-15T23:18:44.857Z,70.60
2023-03-15T23:21:12.449Z,70.37
2023-03-15T23:23:42.808Z,70.26
2023-03-15T23:26:10.385Z,70.48
2023-03-15T23:28:38.100Z,70.57
2023-03-15T23:31:05.649Z,70.88
2023-03-15T23:33:34.699Z,71.02
2023-03-15T23:36:02.338Z,71.01
2023-03-15T23:38:34.761Z,71.04
2023-03-15T23:41:02.652Z,70.90
2023-03-15T23:43:30.268Z,70.81
2023-03-15T23:45:57.809Z,70.83
2023-03-15T23:48:25.447Z,70.96
2023-03-15T23:50:53.410Z,71.11
2023-03-15T23:53:21.114Z,71.24
2023-03-15T23:55:55.218Z,71.36
2023-03-15T23:58:26.477Z,71.38
